Time;durP1;ratioP1;P1;durP2;ratioP2;P2;SDS_P1;SDS_P2;PMS_P1;PMS_P2;Temp;Humidity;BMP_temperature;BMP_pressure;BME280_temperature;BME280_humidity;BME280_pressure;Samples;Min_cycle;Max_cycle;Signal;HPM_P1;HPM_P2
2023/06/12 00:00:33;;;;;;;14.82;6.85;;;;;;;18.73;100.00;101146.97;5006318;28;20511;-76
2023/06/12 00:03:01;;;;;;;14.93;6.43;;;;;;;18.71;100.00;101149.47;5020297;28;20136;-74
2023/06/12 00:05:28;;;;;;;15.75;7.78;;;;;;;18.61;100.00;101152.69;5016597;28;20050;-74
2023/06/12 00:07:57;;;;;;;15.55;7.03;;;;;;;18.58;100.00;101162.84;5011582;28;20629;-74
2023/06/12 00:10:24;;;;;;;13.75;7.03;;;;;;;18.47;100.00;101156.06;5011556;28;20149;-74
2023/06/12 00:12:52;;;;;;;12.88;6.75;;;;;;;18.41;100.00;101155.09;5015834;28;20407;-75
2023/06/12 00:15:19;;;;;;;15.38;6.90;;;;;;;18.42;100.00;101151.81;5009239;28;20049;-76
2023/06/12 00:17:45;;;;;;;17.13;7.65;;;;;;;18.41;100.00;101157.91;5017349;28;20053;-73
2023/06/12 00:20:12;;;;;;;16.75;7.40;;;;;;;18.34;100.00;101161.00;5016248;28;20141;-74
2023/06/12 00:22:40;;;;;;;16.40;7.00;;;;;;;18.25;100.00;101155.31;5007875;28;20061;-76
2023/06/12 00:25:07;;;;;;;14.68;6.88;;;;;;;18.20;100.00;101159.53;5007985;28;20160;-74
2023/06/12 00:27:34;;;;;;;15.05;6.75;;;;;;;18.20;100.00;101158.72;5010692;28;20045;-75
2023/06/12 00:30:03;;;;;;;17.23;8.77;;;;;;;18.18;100.00;101161.19;5010135;28;20046;-74
2023/06/12 00:32:30;;;;;;;14.07;7.35;;;;;;;18.14;100.00;101149.28;5005178;28;20056;-74
2023/06/12 00:34:57;;;;;;;14.63;6.82;;;;;;;18.04;100.00;101150.47;5003141;28;20132;-74
2023/06/12 00:37:24;;;;;;;13.23;7.03;;;;;;;17.99;100.00;101153.91;5006980;28;20425;-74
2023/06/12 00:39:51;;;;;;;16.42;7.50;;;;;;;17.96;100.00;101155.56;5006825;28;20103;-74
2023/06/12 00:42:19;;;;;;;15.45;7.55;;;;;;;17.90;100.00;101139.72;5018444;28;20045;-74
2023/06/12 00:44:46;;;;;;;17.58;7.43;;;;;;;17.87;100.00;101143.44;5006095;28;20177;-73
2023/06/12 00:47:14;;;;;;;13.95;6.93;;;;;;;17.80;100.00;101147.31;5011862;28;20049;-74
2023/06/12 00:49:42;;;;;;;14.25;6.75;;;;;;;17.70;100.00;101128.78;5006361;28;20064;-75
2023/06/12 00:52:12;;;;;;;19.13;7.45;;;;;;;17.71;100.00;101146.44;5007007;28;20424;-74
2023/06/12 00:54:40;;;;;;;15.32;7.28;;;;;;;17.64;100.00;101132.63;5007274;28;20060;-73
2023/06/12 00:57:07;;;;;;;14.32;7.57;;;;;;;17.61;100.00;101142.00;5007867;28;20650;-74
2023/06/12 00:59:35;;;;;;;15.50;7.70;;;;;;;17.56;100.00;101143.38;5011349;28;20053;-74
2023/06/12 01:02:03;;;;;;;14.75;7.03;;;;;;;17.51;100.00;101143.94;5011676;28;20050;-74
2023/06/12 01:04:30;;;;;;;18.30;7.68;;;;;;;17.50;100.00;101147.19;5010287;28;20046;-72
2023/06/12 01:07:07;;;;;;;15.27;7.20;;;;;;;17.42;100.00;101137.44;5020515;28;20064;-74
2023/06/12 01:09:54;;;;;;;20.30;7.50;;;;;;;17.29;100.00;101132.63;5008536;28;20669;-71
2023/06/12 01:12:22;;;;;;;14.02;7.05;;;;;;;17.34;100.00;101137.69;5009217;28;20488;-72
2023/06/12 01:14:49;;;;;;;15.55;7.90;;;;;;;17.27;100.00;101140.75;5006456;28;20054;-74
2023/06/12 01:17:16;;;;;;;15.95;7.32;;;;;;;17.17;100.00;101138.28;5006865;28;20508;-72
2023/06/12 01:19:44;;;;;;;21.35;8.13;;;;;;;17.11;100.00;101132.47;5025345;28;20056;-73
2023/06/12 01:22:13;;;;;;;15.30;7.53;;;;;;;17.08;100.00;101146.63;5018292;28;20495;-73
2023/06/12 01:24:53;;;;;;;18.92;8.15;;;;;;;17.06;100.00;101135.81;5001001;28;20049;-74
2023/06/12 01:27:23;;;;;;;16.90;8.00;;;;;;;17.07;100.00;101134.56;5005820;28;20058;-73
2023/06/12 01:30:08;;;;;;;18.73;7.85;;;;;;;17.01;100.00;101133.56;5014568;28;20050;-74
2023/06/12 01:32:39;;;;;;;24.92;9.23;;;;;;;16.97;100.00;101130.09;5013642;28;20053;-74
2023/06/12 01:35:23;;;;;;;18.30;8.52;;;;;;;16.92;100.00;101133.47;5005931;28;20124;-73
2023/06/12 01:37:56;;;;;;;16.70;8.18;;;;;;;16.93;100.00;101129.44;5007936;28;20069;-72
2023/06/12 01:40:26;;;;;;;15.70;7.68;;;;;;;16.94;100.00;101131.00;5006496;28;20900;-74
2023/06/12 01:42:53;;;;;;;17.10;7.53;;;;;;;16.89;100.00;101122.34;5002221;28;20050;-73
2023/06/12 01:45:20;;;;;;;15.57;7.57;;;;;;;16.78;100.00;101119.13;5007200;28;20057;-73
2023/06/12 01:47:46;;;;;;;17.52;7.95;;;;;;;16.79;100.00;101121.47;5012741;28;20063;-73
2023/06/12 01:50:13;;;;;;;17.17;7.97;;;;;;;16.82;100.00;101126.19;5009129;28;20049;-74
2023/06/12 01:52:41;;;;;;;15.52;7.25;;;;;;;16.78;100.00;101124.75;5023941;28;20073;-73
2023/06/12 01:55:09;;;;;;;19.13;8.65;;;;;;;16.71;100.00;101127.78;5013000;28;20049;-74
2023/06/12 01:57:38;;;;;;;18.58;9.13;;;;;;;16.68;100.00;101128.66;5003253;28;20053;-75
2023/06/12 02:00:05;;;;;;;15.43;7.50;;;;;;;16.61;100.00;101126.84;5002153;28;20069;-74
2023/06/12 02:02:32;;;;;;;18.10;8.18;;;;;;;16.56;100.00;101130.25;5012088;28;20050;-73
2023/06/12 02:04:59;;;;;;;16.98;7.85;;;;;;;16.54;100.00;101131.94;5008980;28;20103;-73
2023/06/12 02:07:26;;;;;;;17.30;7.97;;;;;;;16.49;100.00;101129.66;5007324;28;20050;-72
2023/06/12 02:09:53;;;;;;;15.70;8.18;;;;;;;16.46;100.00;101122.94;5026981;28;20518;-72
2023/06/12 02:12:19;;;;;;;15.68;8.00;;;;;;;16.44;100.00;101127.44;5010365;28;20049;-74
2023/06/12 02:14:47;;;;;;;16.25;7.70;;;;;;;16.36;100.00;101126.84;5025205;28;20051;-73
2023/06/12 02:17:17;;;;;;;15.48;7.50;;;;;;;16.34;100.00;101126.50;5003736;28;20108;-74
2023/06/12 02:19:45;;;;;;;14.50;7.57;;;;;;;16.38;100.00;101126.41;5018572;28;20845;-75
2023/06/12 02:22:12;;;;;;;18.67;8.50;;;;;;;16.39;100.00;101119.56;5027151;28;20559;-75
2023/06/12 02:24:40;;;;;;;16.55;8.40;;;;;;;16.39;100.00;101125.97;5007137;28;20046;-74
2023/06/12 02:27:06;;;;;;;18.60;9.27;;;;;;;16.36;100.00;101128.88;5004547;28;20057;-72
2023/06/12 02:29:33;;;;;;;15.30;7.40;;;;;;;16.31;100.00;101132.25;5005525;28;20098;-71
2023/06/12 02:32:00;;;;;;;15.35;7.97;;;;;;;16.30;100.00;101127.88;5001398;28;20175;-72
2023/06/12 02:34:27;;;;;;;14.18;7.63;;;;;;;16.27;100.00;101137.19;5009047;28;20068;-72
2023/06/12 02:36:53;;;;;;;17.42;8.27;;;;;;;16.25;100.00;101134.00;5017462;28;20049;-71
2023/06/12 02:39:20;;;;;;;17.00;8.05;;;;;;;16.24;100.00;101132.41;5008553;28;20069;-72
2023/06/12 02:41:49;;;;;;;17.17;7.65;;;;;;;16.21;100.00;101134.09;5018245;28;20045;-74
2023/06/12 02:44:16;;;;;;;14.90;7.93;;;;;;;16.19;100.00;101136.56;5010484;28;20136;-73
2023/06/12 02:47:12;;;;;;;14.07;7.93;;;;;;;16.20;100.00;101140.94;5013439;28;20068;-73
2023/06/12 02:49:44;;;;;;;17.15;7.78;;;;;;;16.16;100.00;101131.84;5000753;28;20064;-74
2023/06/12 02:52:12;;;;;;;15.20;7.88;;;;;;;16.16;100.00;101134.66;5009485;28;20068;-73
2023/06/12 02:54:38;;;;;;;14.57;7.60;;;;;;;16.15;100.00;101127.47;5010207;28;20048;-72
2023/06/12 02:57:05;;;;;;;16.98;7.80;;;;;;;16.07;100.00;101131.69;5011931;28;20132;-72
2023/06/12 02:59:32;;;;;;;13.68;7.15;;;;;;;16.04;100.00;101129.00;5021313;28;20447;-72
2023/06/12 03:01:59;;;;;;;18.55;7.70;;;;;;;15.96;100.00;101145.25;5029857;28;20046;-73
2023/06/12 03:04:27;;;;;;;15.05;7.75;;;;;;;15.91;100.00;101126.19;5030072;28;20057;-72
2023/06/12 03:06:53;;;;;;;13.48;7.40;;;;;;;15.89;100.00;101139.84;5006917;28;20046;-73
2023/06/12 03:09:21;;;;;;;17.80;7.63;;;;;;;15.85;100.00;101135.56;5010969;28;20085;-70
2023/06/12 03:11:53;;;;;;;14.52;7.30;;;;;;;15.87;100.00;101145.09;5029978;28;20045;-74
2023/06/12 03:14:21;;;;;;;14.82;7.40;;;;;;;15.88;100.00;101146.69;5029531;28;20081;-76
2023/06/12 03:16:48;;;;;;;15.15;7.10;;;;;;;15.86;100.00;101146.34;5016161;28;20152;-74
2023/06/12 03:19:15;;;;;;;16.15;6.95;;;;;;;15.82;100.00;101154.06;5017920;28;20112;-74
2023/06/12 03:21:42;;;;;;;16.75;8.52;;;;;;;15.82;100.00;101156.06;5029255;28;20056;-74
2023/06/12 03:24:09;;;;;;;14.77;7.50;;;;;;;15.81;100.00;101148.91;5022659;28;20046;-74
2023/06/12 03:26:38;;;;;;;17.02;8.15;;;;;;;15.82;100.00;101154.06;5009859;28;20058;-74
2023/06/12 03:29:05;;;;;;;16.88;7.68;;;;;;;15.84;100.00;101154.41;5016969;28;20097;-74
2023/06/12 03:31:32;;;;;;;16.50;7.68;;;;;;;15.84;100.00;101160.03;5018477;28;20049;-74
2023/06/12 03:33:59;;;;;;;13.15;6.97;;;;;;;15.84;100.00;101153.63;5024410;28;20053;-74
2023/06/12 03:36:28;;;;;;;16.52;6.88;;;;;;;15.85;100.00;101161.59;5022245;28;20556;-74
2023/06/12 03:38:55;;;;;;;16.70;7.40;;;;;;;15.86;100.00;101159.59;5024643;28;20049;-74
2023/06/12 03:41:22;;;;;;;15.25;7.40;;;;;;;15.83;100.00;101161.25;5020179;28;20064;-75
2023/06/12 03:43:50;;;;;;;14.18;7.40;;;;;;;15.82;100.00;101162.47;5009829;28;20809;-74
2023/06/12 03:46:16;;;;;;;15.27;7.25;;;;;;;15.81;100.00;101160.13;5008266;28;20053;-73
2023/06/12 03:48:43;;;;;;;17.42;7.28;;;;;;;15.84;100.00;101159.22;5016350;28;20801;-72
2023/06/12 03:51:10;;;;;;;13.35;6.93;;;;;;;15.84;100.00;101159.22;5011032;28;20076;-72
2023/06/12 03:53:38;;;;;;;19.77;8.38;;;;;;;15.83;100.00;101158.44;5020650;28;20034;-73
2023/06/12 03:56:05;;;;;;;16.42;7.15;;;;;;;15.84;100.00;101162.03;5008315;28;20049;-75
2023/06/12 03:58:32;;;;;;;18.40;7.50;;;;;;;15.90;100.00;101166.66;5015588;28;21492;-74
2023/06/12 04:00:59;;;;;;;14.15;7.18;;;;;;;15.91;100.00;101165.44;5014114;28;20077;-72
2023/06/12 04:03:26;;;;;;;13.85;6.90;;;;;;;15.93;100.00;101157.34;5016861;28;20049;-73
2023/06/12 04:05:53;;;;;;;16.63;7.47;;;;;;;15.96;100.00;101172.50;5003580;28;20450;-75
2023/06/12 04:08:20;;;;;;;15.05;8.18;;;;;;;16.00;100.00;101176.00;5006426;28;20050;-72
2023/06/12 04:10:47;;;;;;;16.65;7.60;;;;;;;16.02;100.00;101171.53;5014669;28;20049;-75
2023/06/12 04:13:14;;;;;;;16.02;7.35;;;;;;;16.03;100.00;101175.91;5007010;28;20493;-75
2023/06/12 04:15:41;;;;;;;14.88;7.90;;;;;;;16.09;100.00;101174.13;5009818;28;20056;-73
2023/06/12 04:18:09;;;;;;;14.98;7.20;;;;;;;16.10;100.00;101172.13;5002762;28;20136;-74
2023/06/12 04:20:38;;;;;;;15.77;7.80;;;;;;;16.11;100.00;101162.47;5017831;28;20046;-74
2023/06/12 04:23:11;;;;;;;17.25;7.72;;;;;;;16.17;100.00;101167.06;5008198;28;20137;-74
2023/06/12 04:25:43;;;;;;;14.73;7.22;;;;;;;16.20;100.00;101176.63;5010398;28;20115;-74
2023/06/12 04:28:13;;;;;;;16.27;7.75;;;;;;;16.24;100.00;101160.47;5009393;28;20096;-73
2023/06/12 04:30:41;;;;;;;17.25;7.05;;;;;;;16.28;100.00;101158.38;5000310;28;20050;-74
2023/06/12 04:33:09;;;;;;;14.27;7.38;;;;;;;16.31;100.00;101158.25;5008001;28;20050;-73
2023/06/12 04:35:37;;;;;;;17.88;8.55;;;;;;;16.36;100.00;101157.72;5008997;28;20055;-73
2023/06/12 04:38:05;;;;;;;15.38;7.78;;;;;;;16.40;100.00;101161.19;5011768;28;20058;-74
2023/06/12 04:40:36;;;;;;;17.67;8.77;;;;;;;16.48;100.00;101167.38;5022854;28;20045;-73
2023/06/12 04:43:06;;;;;;;18.58;8.55;;;;;;;16.53;100.00;101164.00;5014831;28;20081;-73
2023/06/12 04:45:34;;;;;;;16.42;8.45;;;;;;;16.57;100.00;101168.28;5011218;28;20554;-73
2023/06/12 04:48:01;;;;;;;19.50;8.52;;;;;;;16.63;100.00;101174.13;5014092;28;20050;-72
2023/06/12 04:50:30;;;;;;;16.83;8.20;;;;;;;16.67;100.00;101169.97;4999786;28;20054;-75
2023/06/12 04:52:57;;;;;;;18.77;9.02;;;;;;;16.73;100.00;101171.00;5007553;28;20042;-75
2023/06/12 04:55:28;;;;;;;16.48;8.77;;;;;;;16.80;100.00;101167.16;5012053;28;20099;-73
2023/06/12 04:57:55;;;;;;;24.73;10.02;;;;;;;16.88;100.00;101176.97;5012310;28;20061;-74
2023/06/12 05:00:23;;;;;;;20.00;8.27;;;;;;;16.93;100.00;101165.16;5006136;28;20046;-73
2023/06/12 05:02:50;;;;;;;18.70;8.50;;;;;;;17.03;100.00;101167.63;5011883;28;20045;-74
2023/06/12 05:05:19;;;;;;;21.55;10.48;;;;;;;17.11;100.00;101168.19;5009459;28;20084;-74
2023/06/12 05:07:47;;;;;;;19.77;9.00;;;;;;;17.19;100.00;101175.94;5005706;28;20072;-73
2023/06/12 05:10:15;;;;;;;21.17;8.82;;;;;;;17.27;100.00;101180.09;5006106;28;20112;-73
2023/06/12 05:12:42;;;;;;;25.13;9.20;;;;;;;17.35;100.00;101177.81;5008218;28;20050;-74
2023/06/12 05:15:09;;;;;;;17.83;8.45;;;;;;;17.43;100.00;101181.97;5005588;28;20559;-75
2023/06/12 05:17:37;;;;;;;24.75;9.68;;;;;;;17.54;100.00;101184.41;4999527;28;20058;-70
2023/06/12 05:20:08;;;;;;;18.65;8.52;;;;;;;17.61;100.00;101187.00;5004452;28;20710;-72
2023/06/12 05:22:36;;;;;;;19.40;8.45;;;;;;;17.67;100.00;101182.34;5008117;28;20086;-72
2023/06/12 05:25:04;;;;;;;17.85;8.75;;;;;;;17.71;100.00;101175.34;5003791;28;20416;-73
2023/06/12 05:27:31;;;;;;;18.67;8.60;;;;;;;17.81;100.00;101176.19;5006730;28;20476;-72
2023/06/12 05:29:58;;;;;;;19.17;10.00;;;;;;;17.86;100.00;101182.06;5013771;28;20053;-73
2023/06/12 05:32:24;;;;;;;17.50;8.38;;;;;;;17.90;100.00;101173.47;5007642;28;20106;-73
2023/06/12 05:34:51;;;;;;;19.48;8.23;;;;;;;17.98;100.00;101178.41;5005295;28;20120;-74
2023/06/12 05:37:18;;;;;;;18.88;9.15;;;;;;;18.06;100.00;101176.91;5007060;28;20054;-73
2023/06/12 05:39:45;;;;;;;22.60;9.05;;;;;;;18.17;100.00;101182.16;5005977;28;20053;-73
2023/06/12 05:42:11;;;;;;;17.70;8.40;;;;;;;18.25;100.00;101183.44;5015527;28;20060;-74
2023/06/12 05:44:38;;;;;;;24.15;8.65;;;;;;;18.30;100.00;101180.84;5005966;28;20786;-75
2023/06/12 05:47:05;;;;;;;21.17;8.90;;;;;;;18.35;100.00;101182.25;5014200;28;20053;-76
2023/06/12 05:49:36;;;;;;;15.52;7.60;;;;;;;18.43;100.00;101180.75;5008977;28;20049;-75
2023/06/12 05:52:04;;;;;;;21.92;8.43;;;;;;;18.55;100.00;101186.31;5011918;28;20046;-72
2023/06/12 05:54:30;;;;;;;19.25;8.38;;;;;;;18.60;100.00;101177.25;5006422;28;20046;-72
2023/06/12 05:56:58;;;;;;;20.17;8.50;;;;;;;18.68;100.00;101178.56;5004817;28;20140;-70
2023/06/12 05:59:25;;;;;;;17.98;8.50;;;;;;;18.73;100.00;101175.16;5003316;28;20046;-72
2023/06/12 06:01:52;;;;;;;19.80;9.48;;;;;;;18.78;100.00;101174.56;5018252;28;20064;-70
2023/06/12 06:04:19;;;;;;;17.52;8.27;;;;;;;18.85;100.00;101182.72;5008870;28;20060;-72
2023/06/12 06:06:47;;;;;;;21.52;8.27;;;;;;;18.89;100.00;101174.91;5006877;28;20046;-71
2023/06/12 06:09:15;;;;;;;17.15;8.48;;;;;;;19.00;100.00;101188.56;5013243;28;20057;-72
2023/06/12 06:11:42;;;;;;;18.88;8.35;;;;;;;19.09;100.00;101186.56;5005987;28;20042;-72
2023/06/12 06:14:08;;;;;;;17.55;7.50;;;;;;;19.17;100.00;101185.00;5009566;28;20038;-72
2023/06/12 06:16:35;;;;;;;21.20;7.25;;;;;;;19.25;100.00;101194.75;5006602;28;20057;-71
2023/06/12 06:19:19;;;;;;;17.65;7.25;;;;;;;19.36;100.00;101191.47;5006901;28;20145;-73
2023/06/12 06:21:46;;;;;;;17.08;7.00;;;;;;;19.45;100.00;101186.63;5014644;28;20350;-71
2023/06/12 06:24:13;;;;;;;19.25;7.53;;;;;;;19.54;100.00;101189.50;5005009;28;20488;-72
2023/06/12 06:26:40;;;;;;;16.65;7.53;;;;;;;19.59;100.00;101190.94;5004329;28;20057;-70
2023/06/12 06:29:07;;;;;;;19.08;8.57;;;;;;;19.61;100.00;101194.03;5017357;28;20141;-71
2023/06/12 06:31:41;;;;;;;19.38;7.90;;;;;;;19.71;100.00;101202.06;5004226;28;20049;-71
2023/06/12 06:34:10;;;;;;;15.48;7.47;;;;;;;19.77;100.00;101193.00;5009849;28;20144;-67
2023/06/12 06:36:38;;;;;;;19.08;7.95;;;;;;;19.84;100.00;101196.25;5005156;28;20089;-71
2023/06/12 06:39:05;;;;;;;15.48;7.65;;;;;;;19.91;100.00;101195.19;5012882;28;20530;-72
2023/06/12 06:41:32;;;;;;;23.77;7.75;;;;;;;20.02;100.00;101207.56;5007170;28;20049;-71
2023/06/12 06:43:58;;;;;;;14.93;6.85;;;;;;;20.14;100.00;101209.44;5017997;28;20053;-75
2023/06/12 06:46:25;;;;;;;18.67;7.43;;;;;;;20.28;100.00;101205.22;5005685;28;20053;-71
2023/06/12 06:48:52;;;;;;;14.98;7.53;;;;;;;20.37;100.00;101210.84;5007016;28;20103;-71
2023/06/12 06:51:18;;;;;;;16.00;7.63;;;;;;;20.48;100.00;101209.09;5012246;28;20046;-73
2023/06/12 06:53:46;;;;;;;15.32;6.65;;;;;;;20.55;100.00;101193.88;5014914;28;20054;-72
2023/06/12 06:56:12;;;;;;;16.52;7.45;;;;;;;20.66;100.00;101194.16;5020993;28;20061;-71
2023/06/12 06:58:39;;;;;;;19.70;7.28;;;;;;;20.77;100.00;101197.25;5004686;28;20056;-71
2023/06/12 07:01:06;;;;;;;14.38;7.28;;;;;;;20.86;100.00;101194.38;5014562;28;20053;-71
2023/06/12 07:03:33;;;;;;;16.45;7.03;;;;;;;20.94;100.00;101198.47;5004944;28;20037;-70
2023/06/12 07:06:00;;;;;;;15.00;6.95;;;;;;;21.03;100.00;101189.94;5002597;28;20127;-72
2023/06/12 07:08:27;;;;;;;20.67;7.03;;;;;;;21.12;100.00;101187.84;5013685;28;20056;-72
2023/06/12 07:10:53;;;;;;;19.92;7.18;;;;;;;21.28;100.00;101187.44;5007139;28;20046;-71
2023/06/12 07:13:20;;;;;;;19.73;7.72;;;;;;;21.39;100.00;101187.69;5005954;28;20129;-70
2023/06/12 07:15:47;;;;;;;19.38;7.07;;;;;;;21.50;100.00;101184.34;5017045;28;20586;-70
2023/06/12 07:18:14;;;;;;;15.70;7.03;;;;;;;21.59;100.00;101187.88;5004324;28;20050;-70
2023/06/12 07:20:40;;;;;;;18.80;7.80;;;;;;;21.69;100.00;101188.59;4997740;28;20056;-72
2023/06/12 07:23:07;;;;;;;16.60;7.38;;;;;;;21.81;100.00;101187.59;5005955;28;20136;-71
2023/06/12 07:25:34;;;;;;;22.83;7.55;;;;;;;21.89;100.00;101178.22;5012222;28;20826;-74
2023/06/12 07:28:01;;;;;;;17.63;7.45;;;;;;;21.97;100.00;101182.25;5011065;28;20357;-75
2023/06/12 07:30:28;;;;;;;17.13;7.20;;;;;;;22.02;100.00;101180.78;5008924;28;20056;-75
2023/06/12 07:32:55;;;;;;;18.85;7.35;;;;;;;22.12;100.00;101179.44;5009722;28;20081;-74
2023/06/12 07:35:21;;;;;;;13.50;6.97;;;;;;;22.16;100.00;101182.84;5013521;28;20145;-74
2023/06/12 07:37:49;;;;;;;17.55;7.38;;;;;;;22.20;100.00;101174.19;5004958;28;20049;-74
2023/06/12 07:40:17;;;;;;;18.05;7.05;;;;;;;22.34;100.00;101182.69;5005052;28;20057;-72
2023/06/12 07:42:43;;;;;;;15.52;6.90;;;;;;;22.46;100.00;101173.13;5015670;28;20419;-73
2023/06/12 07:45:10;;;;;;;15.45;7.03;;;;;;;22.55;100.00;101178.72;5008823;28;20054;-72
2023/06/12 07:47:38;;;;;;;15.05;7.07;;;;;;;22.68;100.00;101175.56;5011792;28;20054;-72
2023/06/12 07:50:05;;;;;;;17.80;7.75;;;;;;;22.78;100.00;101174.19;5019319;28;20064;-74
2023/06/12 07:52:32;;;;;;;18.50;6.97;;;;;;;22.89;100.00;101174.34;5019089;28;20069;-72
2023/06/12 07:54:59;;;;;;;15.50;7.43;;;;;;;22.98;100.00;101172.19;5009172;28;20065;-75
2023/06/12 07:57:25;;;;;;;14.15;6.57;;;;;;;23.06;100.00;101181.88;5010009;28;20042;-73
2023/06/12 07:59:52;;;;;;;15.07;6.85;;;;;;;23.08;96.86;101173.66;5005055;28;20050;-71
2023/06/12 08:02:19;;;;;;;16.27;6.70;;;;;;;23.17;96.33;101167.84;5007717;28;20713;-72
2023/06/12 08:04:46;;;;;;;13.95;6.68;;;;;;;23.29;97.31;101168.78;5011181;28;20072;-72
2023/06/12 08:07:15;;;;;;;18.42;7.03;;;;;;;23.42;96.24;101174.91;5011721;28;20054;-73
2023/06/12 08:09:42;;;;;;;15.15;7.10;;;;;;;23.46;92.68;101170.56;5023227;28;20058;-73
2023/06/12 08:12:11;;;;;;;15.55;7.30;;;;;;;23.52;93.37;101165.00;5011109;28;20065;-74
2023/06/12 08:14:38;;;;;;;14.38;6.97;;;;;;;23.58;92.54;101171.50;5012557;28;20042;-72
2023/06/12 08:17:05;;;;;;;15.40;7.18;;;;;;;23.71;93.29;101167.06;5013560;28;20077;-76
2023/06/12 08:19:32;;;;;;;12.10;6.50;;;;;;;23.78;92.16;101165.84;5022150;28;20571;-76
2023/06/12 08:21:59;;;;;;;14.10;6.72;;;;;;;23.85;92.07;101154.03;5008566;28;20049;-74
2023/06/12 08:24:29;;;;;;;14.38;7.15;;;;;;;23.81;93.20;101151.44;5005636;28;20046;-73
2023/06/12 08:26:58;;;;;;;14.02;6.63;;;;;;;23.90;93.43;101156.94;5006692;28;20054;-70
2023/06/12 08:29:25;;;;;;;14.88;6.90;;;;;;;23.88;91.32;101153.03;5007084;28;20053;-72
2023/06/12 08:31:53;;;;;;;10.25;6.18;;;;;;;23.93;93.57;101153.09;5005337;28;20049;-70
2023/06/12 08:34:24;;;;;;;13.93;6.78;;;;;;;24.03;94.03;101153.75;5007946;28;20053;-72
2023/06/12 08:36:53;;;;;;;17.77;6.68;;;;;;;24.14;93.63;101154.63;5010334;28;20401;-77
2023/06/12 08:39:20;;;;;;;15.32;7.10;;;;;;;24.24;92.70;101146.75;5008510;28;20045;-78
2023/06/12 08:42:07;;;;;;;16.10;7.13;;;;;;;24.45;91.37;101156.75;5018630;28;20050;-72
2023/06/12 08:44:35;;;;;;;13.10;7.53;;;;;;;24.54;87.49;101153.75;5009429;28;20050;-72
2023/06/12 08:47:03;;;;;;;16.00;6.90;;;;;;;24.72;89.91;101150.53;5009813;28;20128;-71
2023/06/12 08:49:30;;;;;;;13.82;6.50;;;;;;;24.86;88.59;101161.00;4996758;28;20161;-72
2023/06/12 08:51:58;;;;;;;12.23;6.45;;;;;;;24.99;84.94;101160.56;5013355;28;20049;-71
2023/06/12 08:54:25;;;;;;;12.52;6.50;;;;;;;25.07;83.57;101150.28;5004651;28;20060;-72
2023/06/12 08:56:55;;;;;;;16.63;7.40;;;;;;;25.23;81.51;101149.59;5013933;28;20057;-70
2023/06/12 08:59:22;;;;;;;12.25;6.57;;;;;;;25.32;82.45;101150.16;5011056;28;20128;-74
2023/06/12 09:01:56;;;;;;;14.68;6.97;;;;;;;25.47;82.76;101141.44;5004717;28;20629;-71
2023/06/12 09:05:01;;;;;;;16.42;6.75;;;;;;;25.56;80.40;101136.34;5002216;28;20048;-75
2023/06/12 09:07:29;;;;;;;14.57;6.25;;;;;;;25.63;79.67;101137.91;5008072;28;20107;-74
2023/06/12 09:09:56;;;;;;;14.25;7.30;;;;;;;25.75;80.83;101137.41;5008749;28;20052;-73
2023/06/12 09:12:34;;;;;;;12.85;6.55;;;;;;;25.74;77.69;101132.22;5008422;28;21615;-69
2023/06/12 09:15:01;;;;;;;13.43;6.60;;;;;;;25.69;80.51;101136.66;5003979;28;20068;-70
2023/06/12 09:17:28;;;;;;;12.80;6.47;;;;;;;25.76;81.94;101136.16;5012455;28;20054;-67
2023/06/12 09:19:55;;;;;;;14.45;6.50;;;;;;;25.84;82.37;101142.88;5000476;28;20574;-71
2023/06/12 09:22:22;;;;;;;13.73;6.78;;;;;;;25.96;80.84;101135.91;5001431;28;20121;-70
2023/06/12 09:24:49;;;;;;;12.65;7.15;;;;;;;26.03;80.91;101140.38;5004320;28;20045;-70
2023/06/12 09:27:20;;;;;;;15.30;7.25;;;;;;;26.11;78.74;101135.72;5010130;28;20057;-71
2023/06/12 09:29:47;;;;;;;14.68;6.55;;;;;;;26.16;78.92;101132.88;5006966;28;20053;-70
2023/06/12 09:32:15;;;;;;;14.15;7.25;;;;;;;26.29;78.76;101140.94;5000559;28;20060;-71
2023/06/12 09:34:50;;;;;;;12.68;6.35;;;;;;;26.28;75.15;101133.66;5002534;28;20065;-72
2023/06/12 09:37:16;;;;;;;13.55;7.07;;;;;;;26.39;77.88;101131.59;5004539;28;20809;-72
2023/06/12 09:39:44;;;;;;;12.73;7.18;;;;;;;26.53;78.32;101135.50;5003488;28;20058;-72
2023/06/12 09:42:17;;;;;;;14.02;7.38;;;;;;;26.55;78.62;101136.53;5005864;28;20057;-71
2023/06/12 09:44:44;;;;;;;13.25;7.00;;;;;;;26.61;79.73;101134.50;5009696;28;20038;-71
2023/06/12 09:47:12;;;;;;;11.73;6.55;;;;;;;26.70;80.56;101142.78;5011078;28;20056;-72
2023/06/12 09:49:40;;;;;;;12.10;6.72;;;;;;;26.84;80.18;101135.25;5005721;28;20057;-74
2023/06/12 09:52:07;;;;;;;13.45;7.10;;;;;;;26.91;78.46;101137.56;5014336;28;20045;-72
2023/06/12 09:54:35;;;;;;;14.70;7.88;;;;;;;26.97;77.35;101131.84;5008685;28;20049;-73
2023/06/12 09:57:05;;;;;;;15.93;7.28;;;;;;;27.06;79.06;101140.16;5000900;28;20511;-72
2023/06/12 09:59:33;;;;;;;14.52;7.05;;;;;;;27.15;76.94;101139.84;5009163;28;20099;-75
2023/06/12 10:02:14;;;;;;;13.80;7.13;;;;;;;27.23;75.73;101129.50;5009558;28;20099;-73
2023/06/12 10:04:52;;;;;;;13.88;7.28;;;;;;;27.37;73.62;101132.00;5003389;28;20050;-75
2023/06/12 10:07:27;;;;;;;14.50;7.28;;;;;;;27.51;75.76;101130.94;5007061;28;20060;-75
2023/06/12 10:09:55;;;;;;;11.30;7.10;;;;;;;27.54;73.72;101134.81;5006850;28;20096;-72
2023/06/12 10:12:24;;;;;;;14.68;7.10;;;;;;;27.57;74.46;101131.66;5005666;28;20054;-70
2023/06/12 10:14:52;;;;;;;13.30;6.97;;;;;;;27.71;75.27;101124.09;5002261;28;20038;-71
2023/06/12 10:17:22;;;;;;;11.73;7.15;;;;;;;27.85;72.95;101131.56;5010616;28;20788;-73
2023/06/12 10:19:51;;;;;;;13.80;7.45;;;;;;;27.83;68.72;101128.44;5007189;28;20690;-72
2023/06/12 10:22:17;;;;;;;13.32;7.07;;;;;;;27.96;72.47;101125.78;5005101;28;20046;-72
2023/06/12 10:24:45;;;;;;;12.23;7.35;;;;;;;28.06;73.88;101124.16;5006934;28;20049;-72
2023/06/12 10:27:12;;;;;;;12.07;6.38;;;;;;;28.04;69.08;101124.69;5008277;28;20508;-73
2023/06/12 10:29:39;;;;;;;15.95;6.57;;;;;;;28.16;65.56;101134.75;5007497;28;20057;-77
2023/06/12 10:32:08;;;;;;;12.55;6.80;;;;;;;28.09;62.45;101123.88;5002651;28;20449;-70
2023/06/12 10:34:40;;;;;;;12.73;7.18;;;;;;;28.11;62.62;101126.22;5003330;28;20073;-73
2023/06/12 10:37:22;;;;;;;13.30;7.07;;;;;;;28.13;63.84;101115.78;5001950;28;20058;-70
2023/06/12 10:40:00;;;;;;;14.35;6.70;;;;;;;28.27;65.98;101111.81;5003726;28;20061;-75
2023/06/12 10:42:51;;;;;;;13.80;7.30;;;;;;;28.35;65.67;101109.16;5005874;28;20058;-75
2023/06/12 10:45:29;;;;;;;16.65;7.18;;;;;;;28.45;64.55;101104.66;5002625;28;20053;-74
2023/06/12 10:48:05;;;;;;;13.18;7.10;;;;;;;28.45;65.59;101093.22;5003323;28;20047;-75
2023/06/12 10:50:36;;;;;;;14.65;8.05;;;;;;;28.54;66.42;101095.72;5009935;28;20132;-75
2023/06/12 10:53:05;;;;;;;18.63;7.07;;;;;;;28.74;66.57;101103.84;5012759;28;20099;-75
2023/06/12 10:55:33;;;;;;;13.10;7.30;;;;;;;28.83;64.24;101098.56;5009521;28;20085;-76
2023/06/12 10:58:03;;;;;;;13.45;7.63;;;;;;;29.00;63.86;101098.41;5005043;28;20045;-75
2023/06/12 11:00:35;;;;;;;11.25;6.68;;;;;;;29.12;64.17;101091.25;5006487;28;20125;-76
2023/06/12 11:03:04;;;;;;;14.80;7.93;;;;;;;29.37;66.47;101089.94;5020976;28;20042;-75
2023/06/12 11:05:32;;;;;;;13.45;7.90;;;;;;;29.42;61.39;101091.94;5010481;28;20394;-73
2023/06/12 11:08:05;;;;;;;15.60;7.20;;;;;;;29.38;59.54;101093.56;5006974;28;20045;-75
2023/06/12 11:10:34;;;;;;;12.63;7.60;;;;;;;29.41;59.85;101090.41;5025428;28;20650;-74
2023/06/12 11:13:02;;;;;;;11.88;7.30;;;;;;;29.57;61.28;101106.59;5008879;28;20128;-73
2023/06/12 11:15:32;;;;;;;14.20;7.57;;;;;;;29.61;61.04;101097.69;5022210;28;20045;-75
2023/06/12 11:17:59;;;;;;;13.15;7.65;;;;;;;29.74;59.33;101103.50;5008926;28;20056;-74